createdAt,value
2018-08-03T00:01:49.415Z,60.77
2018-08-03T00:04:18.735Z,60.42
2018-08-03T00:06:47.337Z,60.56
2018-08-03T00:09:16.949Z,61.41
2018-08-03T00:11:45.831Z,61.58
2018-08-03T00:14:15.826Z,61.24
2018-08-03T00:16:45.670Z,61.26
2018-08-03T00:19:15.038Z,60.72
2018-08-03T00:21:43.710Z,60.57
2018-08-03T00:24:14.161Z,60.98
2018-08-03T00:26:43.507Z,61.33
2018-08-03T00:29:12.390Z,61.75
2018-08-03T00:31:42.526Z,62.17
2018-08-03T00:34:12.155Z,61.54
2018-08-03T00:36:40.860Z,61.30
2018-08-03T00:39:11.322Z,62.31
2018-08-03T00:41:40.530Z,62.40
2018-08-03T00:44:11.416Z,62.68
2018-08-03T00:46:40.630Z,62.55
2018-08-03T00:49:09.339Z,63.01
2018-08-03T00:51:37.989Z,62.50
2018-08-03T00:54:06.693Z,62.74
2018-08-03T00:56:36.162Z,62.54
2018-08-03T00:59:06.839Z,62.54
2018-08-03T01:01:36.365Z,62.31
2018-08-03T01:04:06.190Z,62.42
2018-08-03T01:06:34.897Z,63.09
2018-08-03T01:09:03.807Z,62.88
2018-08-03T01:11:32.535Z,62.51
2018-08-03T01:14:01.189Z,62.86
2018-08-03T01:16:32.251Z,63.11
2018-08-03T01:19:01.471Z,62.95
2018-08-03T01:21:30.713Z,62.90
2018-08-03T01:24:00.254Z,63.08
2018-08-03T01:26:30.095Z,62.79
2018-08-03T01:28:58.772Z,63.88
2018-08-03T01:31:27.518Z,63.50
2018-08-03T01:33:56.165Z,63.59
2018-08-03T01:36:24.930Z,63.29
2018-08-03T01:38:54.441Z,63.60
2018-08-03T01:41:23.452Z,63.64
2018-08-03T01:43:52.650Z,63.84
2018-08-03T01:46:22.954Z,63.22
2018-08-03T01:48:52.299Z,63.24
2018-08-03T01:51:21.496Z,63.70
2018-08-03T01:53:51.057Z,63.51
2018-08-03T01:56:19.739Z,63.87
2018-08-03T01:58:49.426Z,64.30
2018-08-03T02:01:18.929Z,63.73
2018-08-03T02:03:47.831Z,63.99
2018-08-03T02:06:18.357Z,63.74
2018-08-03T02:08:48.253Z,63.74
2018-08-03T02:11:17.628Z,64.24
2018-08-03T02:13:47.738Z,64.02
2018-08-03T02:16:17.799Z,64.40
2018-08-03T02:18:47.232Z,64.21
2018-08-03T02:21:16.733Z,64.02
2018-08-03T02:23:46.007Z,64.78
2018-08-03T02:26:15.214Z,64.61
2018-08-03T02:28:43.923Z,65.50
2018-08-03T02:31:13.038Z,65.47
2018-08-03T02:33:42.364Z,65.84
2018-08-03T02:36:12.857Z,65.58
2018-08-03T02:38:42.651Z,65.19
2018-08-03T02:41:12.253Z,65.07
2018-08-03T02:43:41.673Z,64.92
2018-08-03T02:46:10.358Z,65.55
2018-08-03T02:48:41.375Z,65.50
2018-08-03T02:51:10.585Z,64.68
2018-08-03T02:53:40.805Z,65.36
2018-08-03T02:56:09.443Z,65.72
2018-08-03T02:58:38.608Z,66.45
2018-08-03T03:01:08.257Z,66.24
2018-08-03T03:03:37.652Z,66.01
2018-08-03T03:06:07.432Z,65.54
2018-08-03T03:08:36.767Z,65.83
2018-08-03T03:11:06.340Z,65.92
2018-08-03T03:13:35.937Z,66.59
2018-08-03T03:16:05.412Z,66.77
2018-08-03T03:18:34.584Z,66.90
2018-08-03T03:21:03.390Z,67.37
2018-08-03T03:23:33.158Z,67.17
2018-08-03T03:26:03.078Z,67.52
2018-08-03T03:28:32.484Z,68.07
2018-08-03T03:31:01.961Z,67.90
2018-08-03T03:33:31.212Z,67.54
2018-08-03T03:36:00.469Z,67.30
2018-08-03T03:38:29.278Z,67.14
2018-08-03T03:40:58.751Z,67.58
2018-08-03T03:43:29.265Z,67.51
2018-08-03T03:45:58.930Z,67.22
2018-08-03T03:48:29.367Z,67.11
2018-08-03T03:50:59.450Z,67.00
2018-08-03T03:53:28.034Z,67.58
2018-08-03T03:55:56.635Z,67.15
2018-08-03T03:58:25.884Z,67.03
2018-08-03T04:00:54.731Z,67.54
2018-08-03T04:03:23.571Z,67.19
2018-08-03T04:05:52.352Z,66.72
2018-08-03T04:08:21.243Z,66.71
2018-08-03T04:10:49.945Z,67.21
2018-08-03T04:13:19.200Z,68.03
2018-08-03T04:15:47.910Z,67.51
2018-08-03T04:18:21.554Z,67.41
2018-08-03T04:20:51.523Z,67.79
2018-08-03T04:23:21.569Z,67.23
2018-08-03T04:25:51.575Z,67.35
2018-08-03T04:28:20.834Z,67.36
2018-08-03T04:30:50.994Z,67.17
2018-08-03T04:33:20.505Z,67.48
2018-08-03T04:35:49.225Z,66.92
2018-08-03T04:38:17.803Z,66.62
2018-08-03T04:40:47.030Z,67.13
2018-08-03T04:43:16.481Z,67.05
2018-08-03T04:45:45.875Z,67.66
2018-08-03T04:48:14.621Z,67.23
2018-08-03T04:50:44.324Z,67.06
2018-08-03T04:53:13.538Z,67.47
2018-08-03T04:55:43.015Z,66.84
2018-08-03T04:58:11.660Z,67.28
2018-08-03T05:00:40.298Z,66.88
2018-08-03T05:03:08.951Z,67.32
2018-08-03T05:05:37.600Z,67.23
2018-08-03T05:08:06.516Z,68.12
2018-08-03T05:10:35.180Z,67.76
2018-08-03T05:13:03.778Z,68.37
2018-08-03T05:15:32.435Z,68.00
2018-08-03T05:18:01.116Z,67.68
2018-08-03T05:20:30.378Z,67.67
2018-08-03T05:22:58.982Z,67.76
2018-08-03T05:25:27.736Z,67.42
2018-08-03T05:27:56.329Z,67.41
2018-08-03T05:30:25.098Z,66.78
2018-08-03T05:32:53.675Z,67.01
2018-08-03T05:35:22.336Z,66.65
2018-08-03T05:37:52.214Z,66.79
2018-08-03T05:40:22.143Z,66.14
2018-08-03T05:42:51.593Z,65.89
2018-08-03T05:45:21.094Z,66.04
2018-08-03T05:47:50.943Z,66.89
2018-08-03T05:50:19.902Z,66.79
2018-08-03T05:52:48.652Z,66.12
2018-08-03T05:55:18.855Z,66.19
2018-08-03T05:57:47.572Z,65.87
2018-08-03T06:00:16.222Z,65.75
2018-08-03T06:02:44.903Z,66.63
2018-08-03T06:05:14.505Z,65.73
2018-08-03T06:07:43.114Z,65.76
2018-08-03T06:10:12.563Z,65.44
2018-08-03T06:12:41.779Z,61.69
2018-08-03T06:15:11.502Z,55.41
2018-08-03T06:17:41.072Z,50.86
2018-08-03T06:20:12.107Z,49.76
2018-08-03T06:22:41.099Z,47.30
2018-08-03T06:25:10.498Z,45.88
2018-08-03T06:27:39.185Z,48.00
2018-08-03T06:30:10.142Z,51.45
2018-08-03T06:32:39.314Z,53.57
2018-08-03T06:35:08.248Z,55.69
2018-08-03T06:37:37.222Z,56.59
2018-08-03T06:40:05.916Z,57.92
2018-08-03T06:42:34.605Z,58.76
2018-08-03T06:45:03.307Z,58.87
2018-08-03T06:47:31.928Z,58.27
2018-08-03T06:50:00.582Z,58.61
2018-08-03T06:52:29.859Z,58.95
2018-08-03T06:54:58.529Z,58.58
2018-08-03T06:57:27.929Z,58.89
2018-08-03T06:59:56.532Z,59.16
2018-08-03T07:02:25.155Z,57.93
2018-08-03T07:04:54.181Z,58.12
2018-08-03T07:07:22.799Z,57.32
2018-08-03T07:09:51.461Z,57.81
2018-08-03T07:12:20.206Z,58.22
2018-08-03T07:14:48.868Z,58.58
2018-08-03T07:17:17.520Z,57.72
2018-08-03T07:19:46.171Z,57.70
2018-08-03T07:22:14.874Z,57.09
2018-08-03T07:24:44.236Z,57.80
2018-08-03T07:27:13.511Z,57.26
2018-08-03T07:29:42.174Z,56.79
2018-08-03T07:32:10.819Z,57.14
2018-08-03T07:34:39.474Z,55.94
2018-08-03T07:37:08.181Z,56.15
2018-08-03T07:39:37.751Z,56.98
2018-08-03T07:42:06.434Z,54.88
2018-08-03T07:44:35.106Z,55.81
2018-08-03T07:47:03.761Z,55.93
2018-08-03T07:49:32.450Z,55.44
2018-08-03T07:52:01.082Z,55.04
2018-08-03T07:54:29.782Z,55.09
2018-08-03T07:56:59.837Z,55.04
2018-08-03T07:59:28.742Z,55.26
2018-08-03T08:01:58.646Z,54.15
2018-08-03T08:04:27.941Z,54.61
2018-08-03T08:06:56.903Z,53.23
2018-08-03T08:09:26.286Z,52.46
2018-08-03T08:11:56.810Z,52.62
2018-08-03T08:14:26.817Z,52.23
2018-08-03T08:16:56.786Z,52.72
2018-08-03T08:19:26.201Z,52.79
2018-08-03T08:21:56.026Z,51.65
2018-08-03T08:24:25.360Z,52.35
2018-08-03T08:26:54.905Z,51.56
2018-08-03T08:29:24.487Z,50.96
2018-08-03T08:31:53.140Z,51.99
2018-08-03T08:34:21.795Z,50.98
2018-08-03T08:36:50.519Z,51.81
2018-08-03T08:39:19.301Z,51.50
2018-08-03T08:41:48.138Z,51.09
2018-08-03T08:44:16.791Z,50.83
2018-08-03T08:46:45.477Z,50.83
2018-08-03T08:49:14.206Z,50.48
2018-08-03T08:51:43.575Z,49.94
2018-08-03T08:54:13.216Z,49.98
2018-08-03T08:56:41.873Z,49.17
2018-08-03T08:59:10.616Z,49.94
2018-08-03T09:01:39.368Z,47.75
2018-08-03T09:04:08.225Z,47.88
2018-08-03T09:06:36.927Z,47.90
2018-08-03T09:09:08.339Z,47.23
2018-08-03T09:11:37.082Z,45.23
2018-08-03T09:14:05.760Z,46.17
2018-08-03T09:16:34.433Z,44.83
2018-08-03T09:19:03.400Z,45.69
2018-08-03T09:21:32.295Z,45.83
2018-08-03T09:24:00.936Z,45.14
2018-08-03T09:26:30.300Z,44.92
2018-08-03T09:28:58.948Z,44.69
2018-08-03T09:31:27.600Z,44.56
2018-08-03T09:33:56.235Z,44.35
2018-08-03T09:36:24.897Z,43.74
2018-08-03T09:38:53.664Z,44.06
2018-08-03T09:41:22.981Z,44.53
2018-08-03T09:43:51.652Z,42.34
2018-08-03T09:46:20.333Z,43.04
2018-08-03T09:48:49.242Z,43.16
2018-08-03T09:51:18.239Z,42.11
2018-08-03T09:53:47.624Z,42.19
2018-08-03T09:56:16.270Z,42.81
2018-08-03T09:58:45.504Z,42.50
2018-08-03T10:01:14.221Z,41.45
2018-08-03T10:03:43.461Z,40.13
2018-08-03T10:06:12.951Z,40.48
2018-08-03T10:08:41.737Z,39.57
2018-08-03T10:11:10.622Z,39.46
2018-08-03T10:13:39.456Z,39.14
2018-08-03T10:16:08.153Z,39.98
2018-08-03T10:18:36.835Z,39.85
2018-08-03T10:21:05.836Z,39.69
2018-08-03T10:23:34.440Z,38.99
2018-08-03T10:26:03.733Z,39.42
2018-08-03T10:28:32.504Z,38.66
2018-08-03T10:31:02.047Z,39.80
2018-08-03T10:33:30.677Z,38.74
2018-08-03T10:35:59.824Z,39.78
2018-08-03T10:38:28.576Z,39.88
2018-08-03T10:40:57.370Z,40.09
2018-08-03T10:43:26.467Z,39.52
2018-08-03T10:45:57.092Z,39.29
2018-08-03T10:48:25.749Z,39.61
2018-08-03T10:50:55.989Z,38.72
2018-08-03T10:53:24.729Z,38.78
2018-08-03T10:55:54.895Z,38.38
2018-08-03T10:58:23.725Z,38.16
2018-08-03T11:00:52.721Z,37.85
2018-08-03T11:03:22.242Z,38.21
2018-08-03T11:05:50.889Z,38.46
2018-08-03T11:08:19.570Z,37.91
2018-08-03T11:10:48.742Z,38.69
2018-08-03T11:13:17.355Z,37.32
2018-08-03T11:15:46.045Z,36.96
2018-08-03T11:18:14.726Z,37.42
2018-08-03T11:20:43.859Z,37.22
2018-08-03T11:23:12.492Z,36.71
2018-08-03T11:25:41.699Z,37.11
2018-08-03T11:30:45.968Z,36.45
2018-08-03T11:33:14.997Z,36.60
2018-08-03T11:35:43.683Z,36.51
2018-08-03T11:38:12.511Z,36.08
2018-08-03T11:40:41.592Z,36.75
2018-08-03T11:43:10.420Z,36.06
2018-08-03T11:45:39.388Z,35.91
2018-08-03T11:48:08.708Z,34.27
2018-08-03T11:50:37.539Z,34.07
2018-08-03T11:53:06.241Z,32.99
2018-08-03T11:55:35.834Z,31.00
2018-08-03T11:58:05.399Z,31.00
2018-08-03T12:00:34.101Z,31.58
2018-08-03T12:03:03.693Z,31.37
2018-08-03T12:05:32.947Z,30.08
2018-08-03T12:08:02.074Z,30.35
2018-08-03T12:10:30.738Z,31.99
2018-08-03T12:12:59.650Z,31.91
2018-08-03T12:15:28.504Z,31.53
2018-08-03T12:17:57.360Z,32.78
2018-08-03T12:20:26.775Z,32.38
2018-08-03T12:22:55.617Z,31.06
2018-08-03T12:25:24.367Z,31.96
2018-08-03T12:27:53.051Z,31.64
2018-08-03T12:30:22.535Z,29.83
2018-08-03T12:32:51.326Z,31.15
2018-08-03T12:35:20.383Z,29.58
2018-08-03T12:37:49.092Z,29.61
2018-08-03T12:40:18.084Z,30.02
2018-08-03T12:42:47.552Z,28.97
2018-08-03T12:45:16.992Z,29.50
2018-08-03T12:47:46.451Z,29.61
2018-08-03T12:50:16.047Z,27.46
2018-08-03T12:52:45.583Z,23.99
2018-08-03T12:55:14.305Z,24.04
2018-08-03T12:57:43.935Z,25.48
2018-08-03T13:00:13.161Z,25.47
2018-08-03T13:02:41.891Z,26.28
2018-08-03T13:05:10.592Z,26.29
2018-08-03T13:07:40.139Z,27.22
2018-08-03T13:10:09.042Z,28.34
2018-08-03T13:12:38.131Z,27.86
2018-08-03T13:15:08.181Z,28.23
2018-08-03T13:17:37.089Z,28.70
2018-08-03T13:20:07.985Z,28.62
2018-08-03T13:22:37.532Z,26.54
2018-08-03T13:25:06.573Z,23.41
2018-08-03T13:27:35.209Z,23.42
2018-08-03T13:30:04.008Z,22.77
2018-08-03T13:32:33.421Z,22.14
2018-08-03T13:35:02.054Z,22.15
2018-08-03T13:37:30.828Z,23.26
2018-08-03T13:39:59.556Z,22.90
2018-08-03T13:42:28.544Z,22.80
2018-08-03T13:44:57.240Z,22.51
2018-08-03T13:47:25.873Z,22.69
2018-08-03T13:49:54.587Z,22.81
2018-08-03T13:52:23.260Z,23.05
2018-08-03T13:54:51.900Z,22.76
2018-08-03T13:57:20.883Z,22.91
2018-08-03T13:59:49.484Z,21.61
2018-08-03T14:02:20.581Z,21.20
2018-08-03T14:04:49.188Z,21.22
2018-08-03T14:07:17.868Z,21.27
2018-08-03T14:09:46.737Z,20.68
2018-08-03T14:12:15.404Z,19.84
2018-08-03T14:14:44.040Z,21.06
2018-08-03T14:17:14.338Z,22.43
2018-08-03T14:19:45.206Z,23.25
2018-08-03T14:22:14.042Z,22.22
2018-08-03T14:24:42.686Z,21.98
2018-08-03T14:27:11.357Z,23.09
2018-08-03T14:29:40.087Z,22.32
2018-08-03T14:32:09.942Z,22.50
2018-08-03T14:34:38.619Z,22.85
2018-08-03T14:37:07.924Z,21.77
2018-08-03T14:39:36.529Z,22.55
2018-08-03T14:42:05.950Z,22.95
2018-08-03T14:44:35.586Z,23.15
2018-08-03T14:47:05.629Z,22.64
2018-08-03T14:49:34.942Z,23.66
2018-08-03T14:52:05.315Z,22.99
2018-08-03T14:54:33.969Z,23.30
2018-08-03T14:57:03.420Z,22.84
2018-08-03T14:59:32.224Z,22.81
2018-08-03T15:02:00.937Z,22.60
2018-08-03T15:04:29.608Z,23.31
2018-08-03T15:06:58.491Z,22.70
2018-08-03T15:09:27.204Z,22.53
2018-08-03T15:11:55.951Z,23.04
2018-08-03T15:14:25.495Z,22.56
2018-08-03T15:16:54.186Z,22.34
2018-08-03T15:19:23.748Z,23.92
2018-08-03T15:21:52.499Z,23.64
2018-08-03T15:24:22.082Z,23.30
2018-08-03T15:26:50.965Z,23.35
2018-08-03T15:29:19.628Z,23.03
2018-08-03T15:31:48.885Z,23.63
2018-08-03T15:34:17.651Z,24.08
2018-08-03T15:36:46.462Z,23.62
2018-08-03T15:39:15.039Z,24.01
2018-08-03T15:41:44.218Z,23.48
2018-08-03T15:44:13.818Z,23.44
2018-08-03T15:46:43.885Z,23.34
2018-08-03T15:49:12.631Z,24.15
2018-08-03T15:51:41.418Z,24.01
2018-08-03T15:54:10.021Z,23.63
2018-08-03T15:56:38.706Z,24.80
2018-08-03T15:59:07.383Z,25.17
2018-08-03T16:01:36.060Z,25.27
2018-08-03T16:04:04.889Z,25.94
2018-08-03T16:06:36.724Z,26.14
2018-08-03T16:09:08.828Z,26.38
2018-08-03T16:11:37.470Z,25.84
2018-08-03T16:14:07.561Z,25.39
2018-08-03T16:16:36.259Z,25.75
2018-08-03T16:19:04.919Z,26.52
2018-08-03T16:21:34.548Z,26.82
2018-08-03T16:24:03.617Z,26.03
2018-08-03T16:26:33.279Z,26.30
2018-08-03T16:29:01.951Z,26.48
2018-08-03T16:31:31.017Z,27.13
2018-08-03T16:33:59.909Z,26.88
2018-08-03T16:36:28.650Z,27.24
2018-08-03T16:39:03.750Z,27.82
2018-08-03T16:41:32.615Z,27.19
2018-08-03T16:44:01.346Z,27.68
2018-08-03T16:46:30.264Z,27.78
2018-08-03T16:48:58.893Z,27.61
2018-08-03T16:51:27.967Z,27.99
2018-08-03T16:53:56.694Z,28.03
2018-08-03T16:56:25.358Z,27.99
2018-08-03T16:58:54.146Z,28.65
2018-08-03T17:01:22.950Z,28.33
2018-08-03T17:03:51.630Z,28.23
2018-08-03T17:06:20.308Z,29.04
2018-08-03T17:08:48.938Z,29.06
2018-08-03T17:11:17.600Z,28.72
2018-08-03T17:13:46.274Z,28.92
2018-08-03T17:16:14.950Z,29.40
2018-08-03T17:18:44.329Z,29.58
2018-08-03T17:21:13.131Z,30.33
2018-08-03T17:23:41.836Z,29.79
2018-08-03T17:26:10.458Z,30.25
2018-08-03T17:28:39.275Z,30.20
2018-08-03T17:31:08.482Z,30.80
2018-08-03T17:33:37.147Z,30.37
2018-08-03T17:36:06.175Z,30.26
2018-08-03T17:38:34.788Z,30.73
2018-08-03T17:41:04.173Z,30.56
2018-08-03T17:43:32.871Z,30.65
2018-08-03T17:46:01.528Z,30.42
2018-08-03T17:48:30.873Z,30.45
2018-08-03T17:51:00.646Z,31.04
2018-08-03T17:53:29.380Z,30.82
2018-08-03T17:55:59.017Z,31.27
2018-08-03T17:58:28.370Z,31.78
2018-08-03T18:00:57.059Z,31.63
2018-08-03T18:03:25.769Z,31.97
2018-08-03T18:05:54.517Z,31.67
2018-08-03T18:08:23.172Z,32.35
2018-08-03T18:10:52.636Z,31.28
2018-08-03T18:13:21.307Z,31.73
2018-08-03T18:15:50.019Z,32.25
2018-08-03T18:18:18.577Z,31.87
2018-08-03T18:20:47.297Z,32.67
2018-08-03T18:23:15.965Z,32.24
2018-08-03T18:25:49.021Z,32.51
2018-08-03T18:28:18.342Z,33.52
2018-08-03T18:30:47.112Z,33.55
2018-08-03T18:33:15.745Z,33.09
2018-08-03T18:35:45.018Z,33.10
2018-08-03T18:38:13.979Z,33.30
2018-08-03T18:40:42.586Z,33.41
2018-08-03T18:43:11.609Z,33.87
2018-08-03T18:45:40.474Z,34.86
2018-08-03T18:48:09.225Z,35.81
2018-08-03T18:50:37.891Z,36.03
2018-08-03T18:53:06.721Z,35.74
2018-08-03T18:55:36.433Z,36.18
2018-08-03T18:58:05.226Z,37.06
2018-08-03T19:00:33.942Z,37.44
2018-08-03T19:03:03.465Z,38.09
2018-08-03T19:05:32.831Z,37.67
2018-08-03T19:08:01.611Z,38.31
2018-08-03T19:10:30.342Z,38.29
2018-08-03T19:12:59.017Z,38.60
2018-08-03T19:15:28.262Z,39.48
2018-08-03T19:17:56.925Z,39.46
2018-08-03T19:20:25.602Z,40.32
2018-08-03T19:22:55.100Z,40.02
2018-08-03T19:25:24.176Z,41.24
2018-08-03T19:27:52.908Z,40.92
2018-08-03T19:30:21.575Z,41.15
2018-08-03T19:32:50.849Z,40.94
2018-08-03T19:35:19.603Z,40.84
2018-08-03T19:37:48.670Z,40.95
2018-08-03T19:40:17.987Z,41.49
2018-08-03T19:42:46.845Z,41.98
2018-08-03T19:45:15.968Z,42.53
2018-08-03T19:47:44.711Z,42.31
2018-08-03T19:50:13.645Z,42.04
2018-08-03T19:52:42.834Z,41.81
2018-08-03T19:55:11.557Z,42.54
2018-08-03T19:57:40.766Z,42.96
2018-08-03T20:00:11.654Z,43.36
2018-08-03T20:02:41.012Z,43.70
2018-08-03T20:05:11.344Z,43.15
2018-08-03T20:07:39.971Z,43.52
2018-08-03T20:10:09.469Z,43.82
2018-08-03T20:12:38.118Z,43.88
2018-08-03T20:15:07.449Z,44.48
2018-08-03T20:17:36.166Z,44.88
2018-08-03T20:20:04.970Z,45.46
2018-08-03T20:22:33.694Z,45.04
2018-08-03T20:25:02.393Z,44.52
2018-08-03T20:27:31.249Z,45.08
2018-08-03T20:29:59.988Z,45.08
2018-08-03T20:32:28.681Z,45.84
2018-08-03T20:34:57.518Z,46.04
2018-08-03T20:37:26.491Z,46.39
2018-08-03T20:39:55.312Z,46.70
2018-08-03T20:42:24.085Z,46.71
2018-08-03T20:44:53.124Z,47.14
2018-08-03T20:47:21.848Z,47.16
2018-08-03T20:49:50.693Z,47.34
2018-08-03T20:52:19.659Z,47.65
2018-08-03T20:54:49.236Z,46.91
2018-08-03T20:57:18.203Z,45.46
2018-08-03T20:59:46.879Z,47.77
2018-08-03T21:02:15.477Z,46.90
2018-08-03T21:04:44.470Z,46.94
2018-08-03T21:07:13.115Z,47.87
2018-08-03T21:09:41.876Z,47.69
2018-08-03T21:12:10.619Z,48.43
2018-08-03T21:14:40.075Z,49.15
2018-08-03T21:17:08.723Z,48.51
2018-08-03T21:19:37.361Z,49.52
2018-08-03T21:22:06.047Z,50.19
2018-08-03T21:24:34.849Z,49.65
2018-08-03T21:27:03.829Z,49.66
2018-08-03T21:29:32.519Z,49.99
2018-08-03T21:32:01.132Z,50.54
2018-08-03T21:34:29.771Z,50.35
2018-08-03T21:36:58.519Z,48.77
2018-08-03T21:39:27.213Z,49.91
2018-08-03T21:41:55.885Z,49.16
2018-08-03T21:44:25.226Z,49.86
2018-08-03T21:46:54.633Z,49.38
2018-08-03T21:49:23.262Z,50.86
2018-08-03T21:51:51.902Z,50.51
2018-08-03T21:54:21.421Z,50.80
2018-08-03T21:56:50.758Z,51.23
2018-08-03T21:59:19.378Z,51.25
2018-08-03T22:01:48.952Z,51.35
2018-08-03T22:04:17.577Z,51.23
2018-08-03T22:06:46.489Z,52.18
2018-08-03T22:09:15.100Z,52.21
2018-08-03T22:11:43.841Z,51.63
2018-08-03T22:14:12.518Z,51.84
2018-08-03T22:16:41.164Z,52.25
2018-08-03T22:19:09.809Z,52.37
2018-08-03T22:21:38.421Z,52.18
2018-08-03T22:24:07.064Z,52.73
2018-08-03T22:26:36.551Z,52.02
2018-08-03T22:29:05.327Z,52.62
2018-08-03T22:31:34.513Z,52.47
2018-08-03T22:34:03.898Z,52.35
2018-08-03T22:36:32.582Z,53.02
2018-08-03T22:39:01.708Z,52.51
2018-08-03T22:41:30.720Z,52.84
2018-08-03T22:43:59.414Z,52.32
2018-08-03T22:46:28.082Z,52.52
2018-08-03T22:48:56.732Z,53.06
2018-08-03T22:51:25.410Z,53.54
2018-08-03T22:53:54.714Z,53.22
2018-08-03T22:56:23.333Z,54.53
2018-08-03T22:58:52.710Z,53.56
2018-08-03T23:01:21.433Z,53.35
2018-08-03T23:03:50.256Z,52.87
2018-08-03T23:06:19.118Z,53.28
2018-08-03T23:08:48.906Z,53.55
2018-08-03T23:11:18.337Z,53.43
2018-08-03T23:13:47.010Z,53.15
2018-08-03T23:16:15.666Z,54.03
2018-08-03T23:18:44.331Z,53.68
2018-08-03T23:21:12.990Z,54.46
2018-08-03T23:23:41.711Z,54.30
2018-08-03T23:26:10.409Z,54.15
2018-08-03T23:28:39.212Z,53.83
2018-08-03T23:31:07.980Z,54.54
2018-08-03T23:33:37.327Z,54.06
2018-08-03T23:36:06.179Z,54.50
2018-08-03T23:38:34.788Z,55.40
2018-08-03T23:41:03.472Z,55.78
2018-08-03T23:43:32.868Z,55.83
2018-08-03T23:46:01.680Z,55.89
2018-08-03T23:48:30.294Z,56.45
2018-08-03T23:50:59.193Z,55.72
2018-08-03T23:53:28.318Z,56.12
2018-08-03T23:55:56.927Z,56.22
2018-08-03T23:58:25.625Z,55.83
